Terminal Aerodrome Forecast
Issued by NWS Mt. Holly, NJ

Home | Current Version | Previous Version | Text Only | Print | Product List | Glossary On
Versions: 1 2 3 4 5 6 7 8 9 10 11 12 13 14 15 16 17 18 19 20 21 22 23 24 25 26 27 28 29
055
FTUS41 KPHI 251400 AAA
TAFRDG
TAF AMD
KRDG 251400Z 2514/2612 09008KT 6SM -RA BR OVC012
      TEMPO 2514/2516 3SM RA BR OVC007
     FM251600 12004KT 5SM BR VCSH OVC010
     FM251800 VRB02KT P6SM OVC015
     FM252100 27004KT P6SM BKN070
     FM260400 31005KT P6SM SCT250=

USA.gov is the U.S. government's official web portal to all federal, state and local government web resources and services.